Time;durP1;ratioP1;P1;durP2;ratioP2;P2;SDS_P1;SDS_P2;PMS_P1;PMS_P2;Temp;Humidity;BMP_temperature;BMP_pressure;BME280_temperature;BME280_humidity;BME280_pressure;Samples;Min_cycle;Max_cycle;Signal;HPM_P1;HPM_P2
2022/08/31 04:00:13;;;;;;;4.80;4.20;;;10.20;96.30;;;;;;6029598;23;20422;-79
2022/08/31 04:02:39;;;;;;;5.50;5.10;;;10.20;96.30;;;;;;5012906;28;20957;-80
2022/08/31 04:05:05;;;;;;;6.93;4.70;;;10.10;96.30;;;;;;5015787;28;20183;-79
2022/08/31 04:07:31;;;;;;;5.47;4.50;;;10.00;96.30;;;;;;5015269;28;20474;-79
2022/08/31 04:09:56;;;;;;;7.77;4.40;;;10.00;96.30;;;;;;5013419;28;20420;-79
2022/08/31 04:12:22;;;;;;;246.87;10.87;;;10.10;96.30;;;;;;5031945;28;20236;-79
2022/08/31 04:14:47;;;;;;;134.40;8.10;;;10.10;96.30;;;;;;5035151;28;20230;-80
2022/08/31 04:17:13;;;;;;;16.30;7.53;;;10.10;96.30;;;;;;5025197;28;20176;-77
2022/08/31 04:19:40;;;;;;;10.90;7.80;;;10.00;96.30;;;;;;5022496;28;20613;-79
2022/08/31 04:29:39;;;;;;;7.60;6.60;;;10.00;96.30;;;;;;4993647;28;20377;-77
2022/08/31 04:32:05;;;;;;;7.80;6.40;;;9.90;96.30;;;;;;4993097;28;20440;-79
2022/08/31 04:34:30;;;;;;;8.00;6.10;;;10.00;96.30;;;;;;4993040;28;20467;-75
2022/08/31 04:36:56;;;;;;;5.47;4.83;;;10.00;96.30;;;;;;4989747;28;20173;-76
2022/08/31 04:39:22;;;;;;;9.37;5.87;;;10.10;96.30;;;;;;5011599;28;20711;-76
2022/08/31 04:41:47;;;;;;;10.87;5.20;;;10.10;96.30;;;;;;4997356;28;20197;-79
2022/08/31 04:44:13;;;;;;;7.77;6.20;;;10.20;96.30;;;;;;5005505;28;20228;-75
2022/08/31 04:46:40;;;;;;;8.13;6.20;;;10.20;96.30;;;;;;5012630;28;20169;-76
2022/08/31 04:49:08;;;;;;;8.47;6.40;;;10.20;96.30;;;;;;4992368;28;20651;-77
2022/08/31 04:51:35;;;;;;;10.00;6.83;;;10.20;96.30;;;;;;4992782;28;20433;-75
2022/08/31 04:54:02;;;;;;;10.43;6.30;;;10.30;96.30;;;;;;5003016;28;20420;-76
2022/08/31 04:56:30;;;;;;;11.17;8.20;;;10.40;96.30;;;;;;5012294;28;20434;-75
2022/08/31 04:59:02;;;;;;;6.53;5.40;;;10.50;96.30;;;;;;5011797;28;20443;-78
2022/08/31 05:01:31;;;;;;;4.90;4.43;;;10.60;96.30;;;;;;5012288;28;20772;-75
2022/08/31 05:03:58;;;;;;;5.33;4.60;;;10.70;96.30;;;;;;5012244;28;20442;-75
2022/08/31 05:06:27;;;;;;;5.30;4.83;;;10.70;96.30;;;;;;4994915;28;20772;-75
2022/08/31 05:08:57;;;;;;;12.33;9.00;;;10.80;96.30;;;;;;5011857;28;20408;-75
2022/08/31 05:11:24;;;;;;;5.20;4.67;;;10.80;96.30;;;;;;5012357;28;20431;-77
2022/08/31 05:13:49;;;;;;;13.23;5.20;;;10.90;96.30;;;;;;5012372;28;20958;-77
2022/08/31 05:16:16;;;;;;;5.40;4.23;;;11.00;96.30;;;;;;5012528;28;20439;-77
2022/08/31 05:18:43;;;;;;;8.40;4.90;;;11.00;96.30;;;;;;5011732;28;20208;-77
2022/08/31 05:21:29;;;;;;;5.50;5.00;;;11.10;96.30;;;;;;5011970;28;20430;-77
2022/08/31 05:24:01;;;;;;;8.33;4.40;;;11.20;96.30;;;;;;4994932;28;20430;-77
2022/08/31 05:26:30;;;;;;;5.00;4.30;;;11.30;96.30;;;;;;5007988;28;20418;-78
2022/08/31 05:28:57;;;;;;;6.97;4.70;;;11.40;96.30;;;;;;5012042;28;20518;-77
2022/08/31 05:31:23;;;;;;;6.63;5.33;;;11.50;96.30;;;;;;4995309;28;20452;-77
2022/08/31 05:33:49;;;;;;;5.40;4.90;;;11.60;96.30;;;;;;4999691;28;20420;-77
2022/08/31 05:36:15;;;;;;;4.67;4.03;;;11.70;96.30;;;;;;4998199;28;20447;-78
2022/08/31 05:38:41;;;;;;;5.03;4.57;;;11.80;96.30;;;;;;4991520;28;20488;-77
2022/08/31 05:41:07;;;;;;;4.80;4.40;;;11.90;96.30;;;;;;4970097;28;20221;-77
2022/08/31 05:43:33;;;;;;;5.60;4.10;;;12.10;96.30;;;;;;4980244;28;20272;-77
2022/08/31 05:45:59;;;;;;;5.40;3.93;;;12.20;96.30;;;;;;5005856;28;20979;-77
2022/08/31 05:48:26;;;;;;;4.47;4.03;;;12.30;96.30;;;;;;4985877;28;20422;-77
2022/08/31 05:50:53;;;;;;;5.13;3.70;;;12.40;96.30;;;;;;4985760;28;21398;-78
2022/08/31 05:53:18;;;;;;;4.03;3.70;;;12.40;96.30;;;;;;4983549;28;20443;-77
2022/08/31 05:55:44;;;;;;;5.23;4.27;;;12.40;96.30;;;;;;5015320;28;20419;-77
2022/08/31 05:58:10;;;;;;;8.20;3.87;;;12.50;96.30;;;;;;5010065;28;20668;-77
2022/08/31 06:00:37;;;;;;;3.40;3.03;;;12.60;96.30;;;;;;5030740;28;20192;-77
2022/08/31 06:03:03;;;;;;;6.33;4.20;;;12.60;96.30;;;;;;5031256;28;20756;-77
2022/08/31 06:05:29;;;;;;;8.63;4.23;;;12.70;96.30;;;;;;5013465;28;20503;-78
2022/08/31 06:07:54;;;;;;;9.63;4.20;;;12.70;96.30;;;;;;5010917;28;20555;-77
2022/08/31 06:10:20;;;;;;;6.10;3.50;;;12.70;96.30;;;;;;4998090;28;20181;-77
2022/08/31 06:12:46;;;;;;;8.40;4.10;;;12.70;96.30;;;;;;5003652;28;20175;-78
2022/08/31 06:15:12;;;;;;;4.20;3.90;;;12.70;96.30;;;;;;5013374;28;20173;-78
2022/08/31 06:17:37;;;;;;;5.53;3.87;;;12.70;96.30;;;;;;5013483;28;20300;-79
2022/08/31 06:20:04;;;;;;;5.83;4.23;;;12.80;96.30;;;;;;4997357;28;20456;-78
2022/08/31 06:22:32;;;;;;;4.30;3.90;;;12.90;96.30;;;;;;5014979;28;20204;-79
2022/08/31 06:24:58;;;;;;;7.23;4.67;;;13.00;96.30;;;;;;5014991;28;20411;-78
2022/08/31 06:27:24;;;;;;;4.17;3.77;;;13.10;96.30;;;;;;5014615;28;20477;-78
2022/08/31 06:29:50;;;;;;;6.63;4.30;;;13.30;96.30;;;;;;5014962;28;20173;-79
2022/08/31 06:32:16;;;;;;;5.67;4.70;;;13.40;96.30;;;;;;5015002;28;20447;-78
2022/08/31 06:34:42;;;;;;;5.40;4.90;;;13.70;96.30;;;;;;4997380;28;20177;-78
2022/08/31 06:37:09;;;;;;;5.50;4.47;;;13.90;96.30;;;;;;5015049;28;20452;-78
2022/08/31 06:39:35;;;;;;;3.80;3.50;;;14.00;96.30;;;;;;4997111;28;20208;-78
2022/08/31 06:42:01;;;;;;;4.73;3.50;;;14.00;96.30;;;;;;4997950;28;20440;-78
2022/08/31 06:44:28;;;;;;;7.40;4.17;;;14.00;96.30;;;;;;4995240;28;20257;-78
2022/08/31 06:46:54;;;;;;;17.73;4.67;;;14.10;96.30;;;;;;4995257;28;20550;-78
2022/08/31 06:49:20;;;;;;;5.30;4.80;;;14.20;96.30;;;;;;4977334;28;20432;-78
2022/08/31 06:51:45;;;;;;;7.90;5.77;;;14.30;96.30;;;;;;4995139;28;20201;-78
2022/08/31 06:54:13;;;;;;;11.03;5.53;;;14.50;96.30;;;;;;4977603;28;20197;-79
2022/08/31 06:56:38;;;;;;;7.83;5.30;;;14.60;96.30;;;;;;4995049;28;20268;-78
2022/08/31 06:59:06;;;;;;;5.40;4.90;;;14.70;96.30;;;;;;4994723;28;20564;-78
2022/08/31 07:01:33;;;;;;;4.73;4.23;;;14.60;96.30;;;;;;4994825;28;20205;-78
2022/08/31 07:04:00;;;;;;;5.27;4.77;;;14.80;96.30;;;;;;4994881;28;20420;-78
2022/08/31 07:06:29;;;;;;;6.00;4.40;;;15.00;96.30;;;;;;4986915;28;20464;-79
2022/08/31 07:08:57;;;;;;;5.90;4.73;;;15.10;96.30;;;;;;4994554;28;20412;-78
2022/08/31 07:11:33;;;;;;;8.50;4.80;;;15.00;96.30;;;;;;4994819;28;20428;-79
2022/08/31 07:13:59;;;;;;;5.20;4.50;;;15.10;96.30;;;;;;4994944;28;20397;-78
2022/08/31 07:16:26;;;;;;;6.33;5.00;;;15.20;96.30;;;;;;4994753;28;20913;-80
2022/08/31 07:18:53;;;;;;;4.97;4.47;;;15.20;96.30;;;;;;4994267;28;20452;-78
2022/08/31 07:21:27;;;;;;;5.50;4.90;;;15.40;96.30;;;;;;4994412;28;20448;-78
2022/08/31 07:23:53;;;;;;;5.70;5.20;;;15.50;96.30;;;;;;4994626;28;20772;-78
2022/08/31 07:26:22;;;;;;;4.93;4.53;;;15.70;96.30;;;;;;5001235;28;20491;-78
2022/08/31 07:28:52;;;;;;;6.63;4.63;;;15.80;96.30;;;;;;5013810;28;20412;-79
2022/08/31 07:31:21;;;;;;;5.40;4.60;;;15.90;96.30;;;;;;5013924;28;20515;-78
2022/08/31 07:33:51;;;;;;;6.83;4.47;;;16.00;96.30;;;;;;5013900;28;20908;-78
2022/08/31 07:36:17;;;;;;;5.37;4.83;;;15.90;96.30;;;;;;5014044;28;20416;-79
2022/08/31 07:42:08;;;;;;;5.43;4.60;;;16.00;96.30;;;;;;5013721;28;20203;-78
2022/08/31 07:44:20;;;;;;;5.47;4.97;;;16.30;96.30;;;;;;4998322;28;20428;-77
2022/08/31 07:46:47;;;;;;;9.20;4.80;;;16.50;96.30;;;;;;4994416;28;20409;-79
2022/08/31 07:49:13;;;;;;;6.93;4.93;;;16.60;96.30;;;;;;4993766;28;20412;-78
2022/08/31 07:51:49;;;;;;;5.00;3.97;;;16.80;96.30;;;;;;4993995;28;20435;-78
2022/08/31 07:54:19;;;;;;;4.73;4.33;;;16.80;96.30;;;;;;5005890;28;20435;-78
2022/08/31 07:56:45;;;;;;;5.17;4.30;;;17.00;96.30;;;;;;4995920;28;20442;-78
2022/08/31 07:59:13;;;;;;;5.10;4.20;;;17.10;96.30;;;;;;5013181;28;20875;-78
2022/08/31 08:01:40;;;;;;;5.00;4.50;;;16.80;96.30;;;;;;5013293;28;20435;-78
2022/08/31 08:04:06;;;;;;;4.53;3.63;;;16.80;96.30;;;;;;5013391;28;20496;-79
2022/08/31 08:06:32;;;;;;;4.67;4.20;;;16.60;96.30;;;;;;5013364;28;20418;-78
2022/08/31 08:09:05;;;;;;;4.50;4.10;;;16.40;96.30;;;;;;5013003;28;20423;-78
2022/08/31 08:11:31;;;;;;;6.07;4.50;;;16.30;96.30;;;;;;4995575;28;20679;-78
2022/08/31 08:13:57;;;;;;;5.37;4.63;;;16.60;96.30;;;;;;4995814;28;20510;-79
2022/08/31 08:16:23;;;;;;;11.97;4.40;;;16.80;96.30;;;;;;5013299;28;20420;-79
2022/08/31 08:18:49;;;;;;;4.00;3.70;;;16.90;96.30;;;;;;5012793;28;20448;-78
2022/08/31 08:21:15;;;;;;;3.57;3.27;;;17.00;96.30;;;;;;5012759;28;20432;-78
2022/08/31 08:23:40;;;;;;;8.33;4.60;;;17.10;96.30;;;;;;5012975;28;20418;-77
2022/08/31 08:26:08;;;;;;;6.30;4.50;;;17.30;96.30;;;;;;4995417;28;20770;-77
2022/08/31 08:28:34;;;;;;;4.23;3.70;;;17.40;96.30;;;;;;5012592;28;20189;-77
2022/08/31 08:31:02;;;;;;;3.90;3.60;;;17.30;96.30;;;;;;4995138;28;20793;-77
2022/08/31 08:33:29;;;;;;;5.03;4.20;;;17.20;96.30;;;;;;5012792;28;20204;-78
2022/08/31 08:35:57;;;;;;;5.10;3.37;;;17.70;96.30;;;;;;5012678;28;20416;-77
2022/08/31 08:38:30;;;;;;;6.83;4.40;;;18.00;96.30;;;;;;5011860;28;20861;-77
2022/08/31 08:40:57;;;;;;;5.87;4.63;;;18.10;96.30;;;;;;5012373;28;20927;-78
2022/08/31 08:43:29;;;;;;;7.00;4.60;;;18.30;96.30;;;;;;5012480;28;20448;-77
2022/08/31 08:45:56;;;;;;;4.30;3.60;;;18.80;96.30;;;;;;5012926;28;20817;-76
2022/08/31 08:48:26;;;;;;;7.47;4.17;;;19.00;96.30;;;;;;5012466;28;20419;-76
2022/08/31 08:50:52;;;;;;;4.17;3.50;;;19.20;96.30;;;;;;4994904;28;20819;-76
2022/08/31 08:53:22;;;;;;;4.40;4.00;;;19.20;96.30;;;;;;4994871;28;20420;-76
2022/08/31 08:55:48;;;;;;;6.00;3.50;;;19.60;96.30;;;;;;5013157;28;20169;-76
2022/08/31 08:58:17;;;;;;;5.80;3.60;;;19.90;96.30;;;;;;4994557;28;20455;-76
2022/08/31 09:00:48;;;;;;;4.93;3.47;;;20.20;96.30;;;;;;5012467;28;20424;-77
2022/08/31 09:03:29;;;;;;;4.77;3.50;;;20.60;96.30;;;;;;4994860;28;20407;-76
2022/08/31 09:06:06;;;;;;;4.80;3.07;;;20.40;96.30;;;;;;4994907;28;20411;-76
2022/08/31 09:08:50;;;;;;;8.73;3.50;;;20.20;96.30;;;;;;4994636;28;20497;-76
2022/08/31 09:11:23;;;;;;;2.67;2.47;;;20.50;96.30;;;;;;4975181;28;20441;-76
2022/08/31 09:14:29;;;;;;;5.33;2.30;;;20.50;96.30;;;;;;4992658;28;20400;-76
2022/08/31 09:17:23;;;;;;;3.70;2.43;;;19.80;96.30;;;;;;4975584;28;20759;-76
2022/08/31 09:19:59;;;;;;;4.40;2.63;;;19.60;96.30;;;;;;4992452;28;20526;-76
2022/08/31 09:22:26;;;;;;;6.93;2.77;;;18.90;96.30;;;;;;4992711;28;20463;-76
2022/08/31 09:24:55;;;;;;;4.63;2.43;;;19.10;96.30;;;;;;4975432;28;20428;-78
2022/08/31 09:27:56;;;;;;;19.60;3.77;;;19.20;96.30;;;;;;5002660;28;20415;-76
2022/08/31 09:30:43;;;;;;;2.60;2.20;;;19.00;96.30;;;;;;5012129;28;20400;-76
2022/08/31 09:33:18;;;;;;;5.50;2.83;;;19.10;96.30;;;;;;5012287;28;20793;-76
2022/08/31 09:35:43;;;;;;;2.23;1.80;;;18.80;96.30;;;;;;5012134;28;20419;-76
2022/08/31 09:38:24;;;;;;;5.23;1.63;;;18.40;96.30;;;;;;5011854;28;20451;-76
2022/08/31 09:40:51;;;;;;;4.30;1.83;;;18.10;96.30;;;;;;5009808;28;20189;-76
2022/08/31 09:43:24;;;;;;;4.67;2.17;;;18.20;96.30;;;;;;5006756;28;20482;-77
2022/08/31 09:46:01;;;;;;;3.80;1.60;;;17.90;96.30;;;;;;4994494;28;20416;-78
2022/08/31 09:48:44;;;;;;;6.40;2.00;;;18.10;96.30;;;;;;5011796;28;20492;-76
2022/08/31 09:51:27;;;;;;;5.53;1.77;;;18.30;96.30;;;;;;5015477;28;20438;-76
2022/08/31 09:56:54;;;;;;;2.20;1.80;;;18.20;96.30;;;;;;5016154;28;20832;-76
2022/08/31 09:59:40;;;;;;;5.40;2.23;;;18.40;96.30;;;;;;5015353;28;20451;-77
2022/08/31 10:02:25;;;;;;;3.63;1.80;;;18.70;96.30;;;;;;5015498;28;20427;-76
2022/08/31 10:05:09;;;;;;;3.13;2.00;;;18.90;96.30;;;;;;4998088;28;20779;-76
2022/08/31 10:07:50;;;;;;;4.30;2.00;;;19.00;96.30;;;;;;5015574;28;20412;-76
2022/08/31 10:10:22;;;;;;;12.73;3.13;;;19.00;96.30;;;;;;5015297;28;20923;-79
2022/08/31 10:12:53;;;;;;;3.00;1.70;;;19.40;96.30;;;;;;5002763;28;20420;-76
2022/08/31 10:15:38;;;;;;;3.53;1.70;;;19.30;96.30;;;;;;4995863;28;20409;-76
2022/08/31 10:18:12;;;;;;;3.67;1.97;;;19.40;96.30;;;;;;4999421;28;20447;-75
2022/08/31 10:25:57;;;;;;;5.37;2.43;;;19.00;96.30;;;;;;5170198;23;20486;-77
2022/08/31 10:28:40;;;;;;;8.67;2.30;;;19.30;96.30;;;;;;5034424;28;20952;-76
2022/08/31 10:31:15;;;;;;;2.87;2.03;;;19.40;96.30;;;;;;5034030;28;20443;-78
2022/08/31 10:36:59;;;;;;;3.10;1.83;;;19.10;96.30;;;;;;4999800;28;21015;-78
2022/08/31 10:39:40;;;;;;;3.10;2.10;;;18.90;96.30;;;;;;5029153;28;20508;-78
2022/08/31 10:42:13;;;;;;;4.03;2.40;;;19.00;96.30;;;;;;5028632;28;20438;-78
2022/08/31 10:44:57;;;;;;;7.47;2.20;;;18.90;96.30;;;;;;5032544;28;20402;-77
2022/08/31 10:47:24;;;;;;;3.67;2.00;;;18.70;96.30;;;;;;5032190;28;20407;-78
2022/08/31 10:49:54;;;;;;;3.00;2.00;;;18.60;96.30;;;;;;5035608;28;20419;-79
2022/08/31 10:52:28;;;;;;;7.83;2.10;;;18.40;96.30;;;;;;5031790;28;20445;-78
2022/08/31 10:55:22;;;;;;;5.40;2.57;;;18.20;96.30;;;;;;5037918;28;20414;-79
2022/08/31 10:58:03;;;;;;;6.83;2.30;;;18.30;96.30;;;;;;5038266;28;20415;-78
2022/08/31 11:00:46;;;;;;;3.60;1.80;;;18.30;96.30;;;;;;5010731;28;20472;-78
2022/08/31 11:03:17;;;;;;;2.70;2.03;;;18.50;96.30;;;;;;5036512;28;20449;-78
2022/08/31 11:06:14;;;;;;;4.10;2.47;;;18.50;96.30;;;;;;5037953;28;20978;-77
2022/08/31 11:09:20;;;;;;;17.33;2.20;;;18.50;96.30;;;;;;5025486;28;20419;-78
2022/08/31 11:12:05;;;;;;;3.50;1.70;;;18.90;96.30;;;;;;5030478;28;20438;-78
2022/08/31 11:15:08;;;;;;;10.97;2.03;;;18.70;96.30;;;;;;5032705;28;20778;-77
2022/08/31 11:17:57;;;;;;;4.33;2.00;;;18.90;96.30;;;;;;5013613;28;20966;-78
2022/08/31 11:20:38;;;;;;;4.90;2.57;;;18.40;96.30;;;;;;5035166;28;20403;-78
2022/08/31 11:23:19;;;;;;;9.20;2.40;;;18.40;96.30;;;;;;5033918;28;20470;-78
2022/08/31 11:25:54;;;;;;;3.50;1.93;;;18.40;96.30;;;;;;5033824;28;20805;-79
2022/08/31 11:28:32;;;;;;;8.63;2.27;;;18.20;96.30;;;;;;5034771;28;20454;-78
2022/08/31 11:31:01;;;;;;;3.97;2.17;;;18.40;96.30;;;;;;5033802;28;20430;-78
2022/08/31 11:33:30;;;;;;;5.60;1.80;;;18.70;96.30;;;;;;5015838;28;20794;-79
2022/08/31 11:36:04;;;;;;;5.97;2.30;;;18.70;96.30;;;;;;5033385;28;20438;-78
2022/08/31 11:38:53;;;;;;;3.30;1.70;;;18.60;96.30;;;;;;5033122;28;20450;-78
2022/08/31 11:41:47;;;;;;;2.87;2.00;;;18.80;96.30;;;;;;5015670;28;20443;-78
2022/08/31 11:44:32;;;;;;;1.97;1.50;;;18.80;96.30;;;;;;5015562;28;20407;-79
2022/08/31 11:47:26;;;;;;;3.07;1.60;;;18.70;96.30;;;;;;5033236;28;20473;-78
2022/08/31 11:50:04;;;;;;;1.90;1.50;;;19.00;96.30;;;;;;5021304;28;20502;-78
2022/08/31 11:52:41;;;;;;;3.30;1.70;;;18.90;96.30;;;;;;5033411;28;20784;-79
2022/08/31 11:55:19;;;;;;;4.60;1.93;;;19.20;96.30;;;;;;5033106;28;21045;-78
2022/08/31 11:58:06;;;;;;;2.50;1.70;;;18.90;96.30;;;;;;5015274;28;20554;-78
2022/08/31 12:00:45;;;;;;;2.67;2.10;;;18.80;96.30;;;;;;5033062;28;20423;-79
2022/08/31 12:03:32;;;;;;;4.80;1.60;;;19.10;96.30;;;;;;5032874;28;20407;-78
2022/08/31 12:05:57;;;;;;;2.07;1.67;;;19.20;96.30;;;;;;5030615;28;20414;-78
2022/08/31 12:08:35;;;;;;;3.23;2.37;;;19.20;96.30;;;;;;5025181;28;20434;-78
2022/08/31 12:11:20;;;;;;;3.10;1.80;;;19.30;96.30;;;;;;5038584;28;20188;-78
2022/08/31 12:14:19;;;;;;;5.93;1.90;;;19.40;96.30;;;;;;5029989;28;21144;-78
2022/08/31 12:17:20;;;;;;;2.53;1.93;;;19.70;96.30;;;;;;5028464;28;20431;-78
2022/08/31 12:20:11;;;;;;;2.77;1.67;;;19.80;96.30;;;;;;5028601;28;20546;-78
2022/08/31 12:25:42;;;;;;;4.10;1.80;;;19.60;96.30;;;;;;5032585;28;20884;-78
2022/08/31 12:28:37;;;;;;;2.23;1.63;;;19.50;96.30;;;;;;5014433;28;20957;-78
2022/08/31 12:31:07;;;;;;;7.43;1.83;;;19.60;96.30;;;;;;5032438;28;20423;-78
2022/08/31 12:33:37;;;;;;;4.03;2.00;;;19.90;96.30;;;;;;5032153;28;20419;-78
2022/08/31 12:36:14;;;;;;;1.77;1.47;;;19.90;96.30;;;;;;5032436;28;20481;-78
2022/08/31 12:38:40;;;;;;;4.57;1.93;;;20.20;96.30;;;;;;5032196;28;20477;-78
2022/08/31 12:41:10;;;;;;;6.37;2.03;;;19.80;96.30;;;;;;5031740;28;20458;-78
2022/08/31 12:43:44;;;;;;;4.83;1.50;;;19.70;96.30;;;;;;5032387;28;20259;-79
2022/08/31 12:46:31;;;;;;;2.83;1.63;;;19.60;96.30;;;;;;5014261;28;20423;-78
2022/08/31 12:49:20;;;;;;;3.83;1.60;;;19.90;96.30;;;;;;5018475;28;20427;-78
2022/08/31 12:52:07;;;;;;;7.70;1.97;;;19.50;96.30;;;;;;5014451;28;20510;-79
2022/08/31 12:54:48;;;;;;;6.83;1.73;;;19.70;96.30;;;;;;5032128;28;20399;-78
2022/08/31 12:57:28;;;;;;;1.60;1.50;;;19.60;96.30;;;;;;5032323;28;20398;-79
2022/08/31 13:00:08;;;;;;;1.70;1.53;;;19.80;96.30;;;;;;5031568;28;20462;-78
2022/08/31 13:02:38;;;;;;;1.97;1.50;;;19.80;96.30;;;;;;5031882;28;20461;-77
2022/08/31 13:05:24;;;;;;;3.60;1.57;;;19.70;96.30;;;;;;5031696;28;20830;-77
2022/08/31 13:07:50;;;;;;;4.07;1.60;;;19.60;96.30;;;;;;5025973;28;20633;-79
2022/08/31 13:10:36;;;;;;;2.27;1.33;;;19.60;96.30;;;;;;5016519;28;20496;-79
2022/08/31 13:13:05;;;;;;;2.90;1.60;;;19.70;96.30;;;;;;5018375;28;20455;-77
2022/08/31 13:15:40;;;;;;;2.00;1.53;;;19.40;96.30;;;;;;5018536;28;20435;-78
2022/08/31 13:18:15;;;;;;;2.33;1.20;;;19.30;96.30;;;;;;5018819;28;20422;-77
2022/08/31 13:20:43;;;;;;;1.93;1.37;;;19.40;96.30;;;;;;5031912;28;20426;-79
2022/08/31 13:23:14;;;;;;;3.40;1.40;;;19.30;96.30;;;;;;5032099;28;20414;-77
2022/08/31 13:25:41;;;;;;;2.13;1.30;;;19.40;96.30;;;;;;5018243;28;20942;-75
2022/08/31 13:28:21;;;;;;;1.20;1.00;;;19.40;96.30;;;;;;5035755;28;21376;-75
2022/08/31 13:31:10;;;;;;;3.03;1.40;;;19.50;96.30;;;;;;5036040;28;20946;-78
2022/08/31 13:33:39;;;;;;;3.43;1.10;;;19.30;96.30;;;;;;5035798;28;20406;-76
2022/08/31 13:36:08;;;;;;;1.40;1.10;;;19.30;96.30;;;;;;5035844;28;20415;-76
2022/08/31 13:38:39;;;;;;;3.00;1.70;;;19.40;96.30;;;;;;5035415;28;20451;-76
2022/08/31 13:41:07;;;;;;;13.80;1.57;;;19.60;96.30;;;;;;5036237;28;20430;-76
2022/08/31 13:43:33;;;;;;;1.30;1.20;;;19.60;96.30;;;;;;5017982;28;20455;-75
2022/08/31 13:45:59;;;;;;;2.33;1.20;;;19.50;96.30;;;;;;5023376;28;20779;-75
2022/08/31 13:48:33;;;;;;;2.17;1.20;;;19.40;96.30;;;;;;5015570;28;20420;-75
2022/08/31 13:51:11;;;;;;;1.63;1.13;;;19.50;96.30;;;;;;5015710;28;20427;-75
2022/08/31 13:53:44;;;;;;;3.73;1.10;;;19.50;96.30;;;;;;5025956;28;20413;-77
2022/08/31 13:59:27;;;;;;;3.10;1.43;;;19.60;96.30;;;;;;5015396;28;20811;-75
2022/08/31 14:01:54;;;;;;;3.00;1.37;;;19.80;96.30;;;;;;5033471;28;20434;-76
2022/08/31 14:04:47;;;;;;;3.73;1.20;;;20.10;96.30;;;;;;5034059;28;20395;-75
2022/08/31 14:07:20;;;;;;;2.53;1.67;;;20.20;96.30;;;;;;5035037;28;20389;-76
2022/08/31 14:09:50;;;;;;;1.73;1.23;;;20.10;96.30;;;;;;5030584;28;20419;-76
2022/08/31 14:12:35;;;;;;;3.60;1.50;;;20.20;96.30;;;;;;5034065;28;20441;-75
2022/08/31 14:15:16;;;;;;;2.00;1.73;;;20.30;96.30;;;;;;5017781;28;20842;-77
2022/08/31 14:17:46;;;;;;;3.10;1.43;;;20.30;96.30;;;;;;5016447;28;20418;-77
2022/08/31 14:20:37;;;;;;;1.93;1.30;;;20.10;96.30;;;;;;5034666;28;20541;-77
2022/08/31 14:23:29;;;;;;;2.27;1.30;;;19.70;96.30;;;;;;5034865;28;20438;-77
2022/08/31 14:26:05;;;;;;;1.63;1.47;;;19.50;96.30;;;;;;5018999;28;20455;-79
2022/08/31 14:28:39;;;;;;;1.77;1.33;;;19.50;96.30;;;;;;5019682;28;20421;-79
2022/08/31 14:31:20;;;;;;;3.40;1.30;;;19.50;96.30;;;;;;5002452;28;20439;-79
2022/08/31 14:33:49;;;;;;;2.10;1.17;;;19.60;96.30;;;;;;5020104;28;20431;-78
2022/08/31 14:36:16;;;;;;;2.80;1.57;;;19.70;96.30;;;;;;5019135;28;20470;-79
2022/08/31 14:38:42;;;;;;;2.00;1.50;;;19.50;96.30;;;;;;5019423;28;20463;-79
2022/08/31 14:41:17;;;;;;;1.73;1.60;;;19.60;96.30;;;;;;5029256;28;20446;-78
2022/08/31 14:43:45;;;;;;;1.83;1.30;;;19.70;96.30;;;;;;5039898;28;21169;-78
2022/08/31 14:46:16;;;;;;;2.50;1.33;;;19.30;96.30;;;;;;5020253;28;20417;-78
2022/08/31 14:48:43;;;;;;;2.13;1.37;;;19.30;96.30;;;;;;5038821;28;21071;-78
2022/08/31 14:51:11;;;;;;;1.40;1.10;;;19.30;96.30;;;;;;5037488;28;20446;-79
2022/08/31 14:53:37;;;;;;;1.80;1.37;;;19.20;96.30;;;;;;5036702;28;20494;-78
2022/08/31 14:56:17;;;;;;;1.77;1.07;;;19.00;96.30;;;;;;5020573;28;20434;-79
2022/08/31 14:58:43;;;;;;;3.37;1.40;;;19.00;96.30;;;;;;5038018;28;20207;-80
2022/08/31 15:01:09;;;;;;;5.13;1.20;;;19.00;96.30;;;;;;5038447;28;20922;-79
2022/08/31 15:03:39;;;;;;;3.60;1.30;;;19.10;96.30;;;;;;5021383;28;20603;-79
2022/08/31 15:06:07;;;;;;;2.63;1.47;;;19.00;96.30;;;;;;5038857;28;20172;-79
2022/08/31 15:08:33;;;;;;;1.83;1.10;;;18.90;96.30;;;;;;5039402;28;20417;-79
2022/08/31 15:10:58;;;;;;;1.30;1.07;;;19.00;96.30;;;;;;5001041;28;20511;-79
2022/08/31 15:13:25;;;;;;;1.40;1.20;;;19.00;96.30;;;;;;5018671;28;20215;-79
2022/08/31 15:15:50;;;;;;;3.40;1.83;;;19.10;96.30;;;;;;5019076;28;20637;-80
2022/08/31 15:18:23;;;;;;;6.50;1.97;;;19.10;96.30;;;;;;5036222;28;20445;-79
2022/08/31 15:20:49;;;;;;;2.50;1.60;;;19.10;96.30;;;;;;5038934;28;20269;-80
2022/08/31 15:23:14;;;;;;;1.63;1.30;;;19.00;96.30;;;;;;5038942;28;20407;-79
2022/08/31 15:25:40;;;;;;;2.43;1.10;;;18.90;96.30;;;;;;5039128;28;20457;-79
2022/08/31 15:28:07;;;;;;;4.50;2.67;;;19.00;96.30;;;;;;5019783;28;20176;-78
2022/08/31 15:30:34;;;;;;;4.23;2.10;;;19.00;96.30;;;;;;5038012;28;20172;-79
2022/08/31 15:33:00;;;;;;;2.10;1.60;;;19.10;96.30;;;;;;5037474;28;20411;-79
2022/08/31 15:35:29;;;;;;;7.83;1.67;;;19.00;96.30;;;;;;5038830;28;20848;-79
2022/08/31 15:38:00;;;;;;;1.57;1.33;;;18.90;96.30;;;;;;5034183;28;20624;-80
2022/08/31 15:40:27;;;;;;;2.80;1.50;;;19.00;96.30;;;;;;5036044;28;20469;-80
2022/08/31 15:42:52;;;;;;;5.20;1.23;;;19.10;96.30;;;;;;5032565;28;20418;-80
2022/08/31 15:45:19;;;;;;;2.73;1.27;;;19.10;96.30;;;;;;5030685;28;20808;-80
2022/08/31 15:50:29;;;;;;;2.83;1.70;;;18.90;96.30;;;;;;5027138;28;20547;-80
2022/08/31 15:53:05;;;;;;;1.20;1.10;;;18.90;96.30;;;;;;5030367;28;20844;-80
2022/08/31 15:55:31;;;;;;;3.43;1.13;;;18.80;96.30;;;;;;5033247;28;20881;-78
2022/08/31 15:57:58;;;;;;;1.90;1.30;;;18.60;96.30;;;;;;5035046;28;20418;-78
2022/08/31 16:00:25;;;;;;;4.50;1.53;;;18.70;96.30;;;;;;5033977;28;20486;-78
2022/08/31 16:02:55;;;;;;;3.17;1.67;;;18.60;96.30;;;;;;5034807;28;20430;-79
2022/08/31 16:05:22;;;;;;;1.90;1.20;;;18.50;96.30;;;;;;5027336;28;20423;-79
2022/08/31 16:07:50;;;;;;;2.63;1.30;;;18.30;96.30;;;;;;5016932;28;20416;-78
2022/08/31 16:10:16;;;;;;;2.17;1.40;;;18.20;96.30;;;;;;5030213;28;20419;-79
2022/08/31 16:12:42;;;;;;;1.90;1.70;;;18.20;96.30;;;;;;5018202;28;20905;-80
2022/08/31 16:15:09;;;;;;;2.47;1.70;;;18.20;96.30;;;;;;5036526;28;20418;-79
2022/08/31 16:17:39;;;;;;;4.50;1.47;;;18.30;96.30;;;;;;5034628;28;20426;-79
2022/08/31 16:20:05;;;;;;;5.10;1.50;;;18.20;96.30;;;;;;5035669;28;20458;-79
2022/08/31 16:22:31;;;;;;;2.27;1.17;;;18.20;96.30;;;;;;5035929;28;20934;-79
2022/08/31 16:24:56;;;;;;;3.67;1.87;;;18.20;96.30;;;;;;5017557;28;20566;-77
2022/08/31 16:27:22;;;;;;;2.27;1.70;;;18.10;96.30;;;;;;5025226;28;20546;-80
2022/08/31 16:29:50;;;;;;;2.43;1.47;;;18.10;96.30;;;;;;5035023;28;20244;-79
2022/08/31 16:32:16;;;;;;;4.10;1.70;;;18.00;96.30;;;;;;5036178;28;20266;-76
2022/08/31 16:34:42;;;;;;;2.70;1.67;;;17.80;96.30;;;;;;5032592;28;21058;-81
2022/08/31 16:37:07;;;;;;;7.50;1.60;;;17.80;96.30;;;;;;5032713;28;20414;-78
2022/08/31 16:39:42;;;;;;;2.10;1.67;;;17.80;96.30;;;;;;5032297;28;20651;-78
2022/08/31 16:42:10;;;;;;;1.80;1.57;;;17.70;96.30;;;;;;5032332;28;20569;-78
2022/08/31 16:44:36;;;;;;;2.37;1.27;;;17.60;96.30;;;;;;5014327;28;20781;-78
2022/08/31 16:47:02;;;;;;;6.07;1.90;;;17.60;96.30;;;;;;5014573;28;20407;-78
2022/08/31 16:49:35;;;;;;;2.23;1.50;;;17.60;96.30;;;;;;5032187;28;20419;-76
2022/08/31 16:52:11;;;;;;;4.50;1.73;;;17.50;96.30;;;;;;5014566;28;20220;-77
2022/08/31 16:54:44;;;;;;;1.60;1.30;;;17.40;96.30;;;;;;5032234;28;20773;-78
2022/08/31 16:57:12;;;;;;;2.37;1.30;;;17.30;96.30;;;;;;5031801;28;20453;-78
2022/08/31 16:59:41;;;;;;;3.40;1.50;;;17.20;96.30;;;;;;5030860;28;20469;-77
2022/08/31 17:02:10;;;;;;;2.53;1.20;;;17.20;96.30;;;;;;5032267;28;20474;-79
2022/08/31 17:04:38;;;;;;;3.33;1.67;;;17.10;96.30;;;;;;5031915;28;20403;-77
2022/08/31 17:07:04;;;;;;;4.07;1.60;;;17.10;96.30;;;;;;5032081;28;20417;-78
2022/08/31 17:09:29;;;;;;;1.77;1.30;;;17.00;96.30;;;;;;5013462;28;20423;-78
2022/08/31 17:12:01;;;;;;;4.23;1.50;;;17.00;96.30;;;;;;5031947;28;20196;-78
2022/08/31 17:14:37;;;;;;;2.07;1.17;;;16.90;96.30;;;;;;5014384;28;20183;-78
2022/08/31 17:17:05;;;;;;;3.40;1.50;;;16.80;96.30;;;;;;5018318;28;20458;-78
2022/08/31 17:19:38;;;;;;;2.50;1.30;;;16.80;96.30;;;;;;5018599;28;20541;-78
2022/08/31 17:22:06;;;;;;;1.83;1.60;;;16.70;96.30;;;;;;5035502;28;20578;-78
2022/08/31 17:24:37;;;;;;;2.40;1.53;;;16.60;96.30;;;;;;5031235;28;20514;-78
2022/08/31 17:27:08;;;;;;;4.17;3.00;;;16.50;96.30;;;;;;5031503;28;20407;-78
2022/08/31 17:29:36;;;;;;;3.50;1.67;;;16.40;96.30;;;;;;5035049;28;20838;-78
2022/08/31 17:32:06;;;;;;;7.03;1.73;;;16.40;96.30;;;;;;5019006;28;20439;-78
2022/08/31 17:34:34;;;;;;;4.53;2.07;;;16.30;96.30;;;;;;5019893;28;20422;-78
2022/08/31 17:37:07;;;;;;;1.80;1.47;;;16.10;96.30;;;;;;5031835;28;20445;-78
2022/08/31 17:39:32;;;;;;;4.50;1.80;;;16.10;96.30;;;;;;5031718;28;20445;-78